Time;durP1;ratioP1;P1;durP2;ratioP2;P2;SDS_P1;SDS_P2;PMS_P1;PMS_P2;Temp;Humidity;BMP_temperature;BMP_pressure;BME280_temperature;BME280_humidity;BME280_pressure;Samples;Min_cycle;Max_cycle;Signal;HPM_P1;HPM_P2
2022/04/06 00:08:20;;;;;;;5.77;4.70;;;11.00;95.80;;;;;;20837097;28;20274;-71
2022/04/06 00:18:22;;;;;;;6.47;5.27;;;11.00;96.10;;;;;;20835348;28;20207;-71
2022/04/06 00:28:24;;;;;;;6.73;4.90;;;11.00;96.20;;;;;;20833370;28;20738;-71
2022/04/06 00:38:25;;;;;;;7.90;5.00;;;11.10;96.20;;;;;;20834689;28;20205;-70
2022/04/06 00:48:28;;;;;;;6.77;5.43;;;11.10;96.40;;;;;;20832850;28;20216;-72
2022/04/06 00:58:30;;;;;;;6.70;5.50;;;11.00;96.50;;;;;;20833139;28;20233;-69
2022/04/06 01:08:31;;;;;;;7.47;5.70;;;11.10;96.60;;;;;;20832644;28;20208;-71
2022/04/06 01:18:33;;;;;;;7.20;5.63;;;11.10;96.70;;;;;;20831867;28;20228;-68
2022/04/06 01:28:36;;;;;;;7.97;5.70;;;11.10;96.90;;;;;;20831596;28;20220;-67
2022/04/06 01:38:38;;;;;;;7.37;5.80;;;11.10;96.50;;;;;;20830218;28;20225;-70
2022/04/06 01:52:11;;;;;;;6.73;5.50;;;11.10;96.90;;;;;;20830016;28;20205;-69
2022/04/06 01:59:01;;;;;;;6.37;5.63;;;11.10;96.50;;;;;;20829448;28;20291;-70
2022/04/06 02:09:03;;;;;;;6.43;5.27;;;11.20;96.80;;;;;;20829239;28;20221;-73
2022/04/06 02:19:05;;;;;;;8.23;5.60;;;11.20;96.50;;;;;;20826525;28;20240;-71
2022/04/06 02:29:07;;;;;;;6.90;6.20;;;11.20;96.50;;;;;;20826802;28;20216;-70
2022/04/06 02:39:08;;;;;;;7.43;6.13;;;11.20;96.90;;;;;;20827788;28;20281;-72
2022/04/06 02:49:10;;;;;;;13.30;6.20;;;11.20;96.70;;;;;;20834306;28;20212;-71
2022/04/06 02:59:12;;;;;;;7.23;6.17;;;11.20;97.00;;;;;;20842613;28;20271;-72
2022/04/06 03:09:14;;;;;;;7.83;6.33;;;11.30;97.00;;;;;;20841963;28;20213;-73
2022/04/06 03:19:16;;;;;;;10.07;7.00;;;11.30;97.00;;;;;;20840796;28;20228;-73
2022/04/06 03:29:17;;;;;;;9.60;7.50;;;11.20;96.70;;;;;;20840607;28;20208;-73
2022/04/06 03:39:19;;;;;;;8.13;7.33;;;11.20;97.10;;;;;;20839746;28;20618;-72
2022/04/06 03:49:21;;;;;;;9.70;7.70;;;11.20;97.20;;;;;;20839152;28;20611;-72
2022/04/06 03:59:23;;;;;;;9.53;7.67;;;11.20;97.40;;;;;;20837976;28;20252;-72
2022/04/06 04:09:24;;;;;;;10.30;8.20;;;11.20;97.50;;;;;;20837474;28;20734;-70
2022/04/06 04:19:27;;;;;;;9.50;7.50;;;11.20;97.50;;;;;;20857331;28;20223;-72
2022/04/06 04:29:28;;;;;;;11.33;7.23;;;11.10;97.70;;;;;;20916004;28;20205;-71
2022/04/06 04:39:30;;;;;;;10.07;8.00;;;11.10;97.60;;;;;;20886906;28;20599;-74
2022/04/06 04:49:32;;;;;;;10.87;6.97;;;11.20;97.10;;;;;;20907599;28;20216;-74
2022/04/06 04:59:33;;;;;;;9.07;7.37;;;11.20;97.40;;;;;;20867478;28;20241;-72
2022/04/06 05:09:35;;;;;;;8.47;7.13;;;11.20;97.30;;;;;;20872264;28;20215;-72
2022/04/06 05:19:37;;;;;;;8.73;6.90;;;11.30;97.10;;;;;;20913946;28;20261;-70
2022/04/06 05:29:39;;;;;;;8.03;6.60;;;11.20;97.30;;;;;;20912727;28;20216;-72
2022/04/06 05:39:40;;;;;;;8.80;6.83;;;11.20;97.30;;;;;;20828584;28;20236;-73
2022/04/06 05:49:42;;;;;;;8.23;6.63;;;11.30;97.30;;;;;;20829102;28;20543;-72
2022/04/06 05:59:45;;;;;;;10.23;6.70;;;11.30;97.10;;;;;;20831344;28;20255;-70
2022/04/06 06:09:47;;;;;;;6.97;6.07;;;11.40;97.10;;;;;;20861419;28;20205;-71
2022/04/06 06:19:49;;;;;;;20.57;14.83;;;11.40;96.70;;;;;;20849607;28;20645;-69
2022/04/06 06:29:51;;;;;;;8.80;5.90;;;11.50;96.60;;;;;;20926225;28;20205;-68
2022/04/06 06:39:54;;;;;;;7.57;5.87;;;11.60;96.70;;;;;;20924178;28;20290;-71
2022/04/06 06:49:56;;;;;;;7.53;6.50;;;11.80;96.20;;;;;;20922996;28;20208;-71
2022/04/06 06:59:58;;;;;;;9.33;7.50;;;11.80;96.00;;;;;;20870071;28;20267;-68
2022/04/06 07:10:00;;;;;;;9.10;5.70;;;12.00;95.60;;;;;;20876719;28;20235;-69
2022/04/06 07:20:03;;;;;;;6.13;5.07;;;12.00;95.70;;;;;;20921879;28;20224;-66
2022/04/06 07:30:07;;;;;;;7.03;5.97;;;12.10;95.20;;;;;;20921703;28;20315;-69
2022/04/06 07:40:11;;;;;;;7.27;5.80;;;12.20;94.30;;;;;;20919763;28;20237;-64
2022/04/06 07:50:14;;;;;;;7.70;5.77;;;12.30;93.80;;;;;;20919819;28;20539;-66
2022/04/06 08:00:17;;;;;;;6.53;5.03;;;12.30;93.80;;;;;;20918357;28;20232;-68
2022/04/06 08:10:19;;;;;;;6.17;5.03;;;12.30;93.70;;;;;;20918593;28;20209;-68
2022/04/06 08:20:21;;;;;;;7.47;5.53;;;12.30;93.40;;;;;;20917149;28;20258;-69
2022/04/06 08:30:23;;;;;;;9.07;6.13;;;12.60;93.10;;;;;;20917026;28;20214;-69
2022/04/06 08:40:26;;;;;;;9.13;4.90;;;12.60;92.80;;;;;;20917634;28;20240;-64
2022/04/06 08:50:29;;;;;;;6.00;4.77;;;12.60;92.30;;;;;;20914559;28;20206;-65
2022/04/06 09:00:32;;;;;;;9.37;5.27;;;12.60;91.90;;;;;;20913449;28;20695;-68
2022/04/06 09:10:36;;;;;;;6.77;5.10;;;12.60;91.60;;;;;;20912806;28;20569;-67
2022/04/06 09:20:38;;;;;;;6.97;4.70;;;12.70;91.90;;;;;;20914304;28;20239;-66
2022/04/06 09:30:45;;;;;;;7.90;4.80;;;13.10;91.10;;;;;;20880088;28;20666;-67
2022/04/06 09:41:14;;;;;;;5.43;4.33;;;13.10;90.80;;;;;;20824239;28;20236;-66
2022/04/06 09:51:17;;;;;;;10.87;5.53;;;13.50;86.80;;;;;;20827648;28;20266;-67
2022/04/06 10:01:19;;;;;;;8.13;4.73;;;13.90;84.30;;;;;;20853691;28;20243;-69
2022/04/06 10:11:21;;;;;;;8.43;4.37;;;14.00;82.20;;;;;;20914037;28;20200;-75
2022/04/06 10:21:48;;;;;;;8.10;3.83;;;14.00;82.50;;;;;;20909434;28;20241;-70
2022/04/06 10:31:50;;;;;;;4.40;3.10;;;14.10;78.60;;;;;;20909937;28;20686;-70
2022/04/06 10:42:16;;;;;;;4.47;2.97;;;14.20;77.50;;;;;;20909957;28;20230;-66
2022/04/06 10:52:24;;;;;;;5.60;2.77;;;14.40;72.80;;;;;;20870976;28;20196;-66
2022/04/06 11:02:28;;;;;;;4.40;3.23;;;14.50;70.70;;;;;;20925152;28;20265;-68
2022/04/06 11:12:35;;;;;;;5.17;2.93;;;14.50;71.10;;;;;;20857382;28;20239;-66
2022/04/06 11:22:49;;;;;;;6.83;3.13;;;14.70;71.60;;;;;;20923364;28;20322;-69
2022/04/06 11:32:57;;;;;;;6.97;2.80;;;14.80;72.30;;;;;;20923506;28;20294;-67
2022/04/06 11:48:42;;;;;;;7.90;2.60;;;15.10;69.30;;;;;;21060721;28;20571;-68
2022/04/06 11:58:44;;;;;;;4.23;2.40;;;15.20;70.00;;;;;;20982492;28;20303;-68
2022/04/06 12:08:46;;;;;;;2.60;2.40;;;15.30;69.20;;;;;;20981406;28;20211;-68
2022/04/06 12:18:51;;;;;;;3.03;2.70;;;15.30;69.30;;;;;;21029109;28;20642;-66
2022/04/06 12:28:59;;;;;;;2.63;2.40;;;15.20;69.90;;;;;;21064404;28;20202;-65
2022/04/06 12:39:13;;;;;;;2.73;2.30;;;15.20;68.60;;;;;;21062741;28;20325;-67
2022/04/06 12:49:26;;;;;;;3.60;2.80;;;15.20;68.50;;;;;;21002667;28;20214;-67
2022/04/06 12:59:39;;;;;;;3.87;3.00;;;15.20;69.70;;;;;;20945402;28;20234;-66
2022/04/06 13:10:08;;;;;;;3.10;2.67;;;15.20;70.00;;;;;;21004765;28;20258;-67
2022/04/06 13:20:12;;;;;;;4.97;2.87;;;15.20;69.40;;;;;;20995692;28;20234;-61
2022/04/06 13:30:16;;;;;;;4.13;2.70;;;15.20;69.70;;;;;;21002704;28;20660;-72
2022/04/06 13:40:18;;;;;;;4.77;2.53;;;15.30;69.60;;;;;;21002184;28;20247;-65
2022/04/06 13:50:21;;;;;;;4.43;2.50;;;15.70;67.30;;;;;;21001133;28;20209;-66
2022/04/06 14:00:23;;;;;;;4.23;2.30;;;16.30;64.40;;;;;;21000964;28;20650;-66
2022/04/06 14:10:25;;;;;;;4.83;2.50;;;16.40;64.80;;;;;;21053746;28;20215;-64
2022/04/06 14:20:28;;;;;;;9.00;2.73;;;16.90;63.70;;;;;;21082763;28;20239;-67
2022/04/06 14:30:34;;;;;;;9.97;2.57;;;17.90;58.20;;;;;;21013085;28;20201;-62
2022/04/06 14:40:36;;;;;;;4.10;2.10;;;19.80;53.90;;;;;;20996467;28;20241;-62
2022/04/06 14:50:38;;;;;;;8.07;3.60;;;20.10;53.50;;;;;;20996787;28;20679;-63
2022/04/06 15:00:41;;;;;;;4.53;2.73;;;21.10;51.50;;;;;;20996393;28;20239;-69
2022/04/06 15:10:43;;;;;;;5.85;2.28;;;21.40;50.90;;;;;;20996599;28;20234;-63
2022/04/06 15:20:45;;;;;;;5.78;2.22;;;23.20;47.70;;;;;;20995061;28;20239;-64
2022/04/06 15:30:47;;;;;;;3.92;2.40;;;22.60;47.60;;;;;;20994851;28;20204;-65
2022/04/06 15:40:49;;;;;;;3.80;1.90;;;23.20;46.90;;;;;;20995302;28;20231;-63
2022/04/06 15:50:51;;;;;;;4.13;1.70;;;20.80;47.70;;;;;;20994128;28;20711;-71
2022/04/06 16:00:52;;;;;;;5.10;2.03;;;19.30;49.60;;;;;;20993959;28;20705;-70
2022/04/06 16:10:54;;;;;;;2.47;1.70;;;19.10;50.40;;;;;;20934398;28;20213;-67
2022/04/06 16:20:56;;;;;;;5.33;2.00;;;18.50;50.60;;;;;;20910787;28;20240;-67
2022/04/06 16:30:58;;;;;;;5.27;1.50;;;17.80;51.70;;;;;;20965520;28;20304;-69
2022/04/06 16:40:59;;;;;;;4.37;1.53;;;17.80;52.20;;;;;;21003488;28;20298;-65
2022/04/06 17:01:21;;;;;;;4.43;1.50;;;16.30;53.50;;;;;;20985783;28;20241;-70
2022/04/06 17:11:23;;;;;;;2.03;1.30;;;15.70;54.80;;;;;;20983333;28;20590;-68
2022/04/06 17:21:26;;;;;;;3.07;1.50;;;15.40;55.60;;;;;;20966114;28;20234;-67
2022/04/06 17:31:28;;;;;;;4.70;1.50;;;15.00;56.60;;;;;;20975956;28;20681;-66
2022/04/06 17:41:48;;;;;;;2.50;1.40;;;14.70;57.60;;;;;;21054709;28;20300;-64
2022/04/06 17:51:50;;;;;;;1.77;1.20;;;14.30;58.30;;;;;;20960356;28;20216;-66
2022/04/06 18:01:51;;;;;;;3.87;1.50;;;14.10;59.00;;;;;;20994740;28;20242;-65
2022/04/06 18:22:13;;;;;;;3.17;1.70;;;13.80;60.00;;;;;;20997421;28;20238;-64
2022/04/06 18:32:16;;;;;;;6.07;2.00;;;13.70;60.30;;;;;;20990659;28;20580;-67
2022/04/06 18:42:18;;;;;;;3.33;1.80;;;13.70;61.10;;;;;;20944939;28;20454;-67
2022/04/06 18:52:20;;;;;;;2.97;1.80;;;14.20;61.00;;;;;;20995503;28;20203;-66
2022/04/06 19:02:22;;;;;;;2.57;1.60;;;13.60;61.30;;;;;;20924715;28;20327;-67
2022/04/06 19:12:25;;;;;;;4.40;1.70;;;13.40;61.70;;;;;;20925205;28;20222;-65
2022/04/06 19:22:27;;;;;;;3.70;1.63;;;13.40;61.90;;;;;;20995055;28;20239;-65
2022/04/06 19:32:29;;;;;;;2.40;1.90;;;13.40;63.50;;;;;;20993309;28;20546;-66
2022/04/06 19:42:33;;;;;;;4.30;2.10;;;13.30;64.20;;;;;;20993806;28;20732;-66
2022/04/06 19:52:35;;;;;;;3.67;1.50;;;13.30;64.90;;;;;;20993496;28;20199;-66
2022/04/06 20:02:37;;;;;;;5.00;1.80;;;13.10;65.90;;;;;;20996556;28;20230;-66
2022/04/06 20:12:39;;;;;;;3.13;1.90;;;13.10;66.40;;;;;;21009498;28;20216;-67
2022/04/06 20:22:41;;;;;;;5.10;1.80;;;13.10;66.90;;;;;;21008177;28;20320;-65
2022/04/06 20:32:42;;;;;;;4.20;2.03;;;13.00;68.10;;;;;;20993990;28;20207;-64
2022/04/06 20:42:44;;;;;;;2.30;1.80;;;13.00;69.10;;;;;;21007531;28;20243;-65
2022/04/06 20:52:46;;;;;;;3.17;2.10;;;13.00;69.70;;;;;;21006372;28;20615;-65
2022/04/06 21:02:48;;;;;;;6.73;2.10;;;13.00;71.20;;;;;;21001396;28;20724;-64
2022/04/06 21:12:53;;;;;;;2.93;2.10;;;13.00;72.00;;;;;;21004997;28;20206;-67
2022/04/06 21:22:55;;;;;;;6.17;2.60;;;13.00;72.00;;;;;;21004462;28;20587;-65
2022/04/06 21:32:57;;;;;;;4.50;2.00;;;13.00;73.50;;;;;;21004236;28;20211;-66
2022/04/06 21:43:01;;;;;;;3.90;2.40;;;13.00;74.30;;;;;;21002814;28;20569;-65
2022/04/06 21:53:03;;;;;;;3.97;2.30;;;13.00;74.60;;;;;;21002606;28;20209;-66
2022/04/06 22:03:05;;;;;;;3.87;2.10;;;12.90;74.80;;;;;;21001310;28;20244;-65
2022/04/06 22:13:07;;;;;;;3.43;2.30;;;13.00;75.80;;;;;;21000702;28;20219;-65
2022/04/06 22:23:08;;;;;;;5.00;2.17;;;12.90;76.70;;;;;;20980825;28;20236;-65
2022/04/06 22:33:10;;;;;;;4.53;2.50;;;12.90;77.30;;;;;;20998225;28;20213;-66
2022/04/06 22:43:12;;;;;;;5.77;2.53;;;12.80;78.60;;;;;;20996296;28;20267;-65
2022/04/06 22:53:13;;;;;;;4.70;2.60;;;12.90;79.40;;;;;;20998641;28;20211;-65
2022/04/06 23:03:15;;;;;;;6.80;2.93;;;12.70;83.10;;;;;;21006476;28;20232;-67
2022/04/06 23:13:17;;;;;;;4.83;2.73;;;12.50;86.30;;;;;;20995594;28;20207;-65
2022/04/06 23:23:18;;;;;;;4.93;2.80;;;12.50;87.00;;;;;;20996260;28;20239;-64
2022/04/06 23:33:20;;;;;;;5.00;2.93;;;12.40;89.80;;;;;;20995285;28;20243;-64
2022/04/06 23:43:22;;;;;;;6.83;3.03;;;12.20;91.40;;;;;;20993675;28;20236;-64
2022/04/06 23:53:24;;;;;;;4.47;2.50;;;12.20;91.40;;;;;;20994347;28;20651;-66
